Terminal Aerodrome Forecast
Issued by NWS

Home | Current Version | Previous Version | Text Only | Print | Product List | Glossary Off
Versions: 1 2 3 4 5 6 7 8 9 10 11 12 13 14 15 16 17 18 19 20 21 22 23 24 25 26 27 28 29

774
FTUS43 KBIS 240535
TAFDIK
TAF
KDIK 240535Z 2406/2506 34004KT P6SM SCT025
     FM240900 01005KT P6SM BKN025
     FM241500 05004KT 5SM BR BKN025
     FM241700 36005KT P6SM BKN050
     FM250200 16004KT P6SM BKN080=

USA.gov is the U.S. government's official web portal to all federal, state and local government web resources and services.